createdAt,value
2018-12-23T00:02:19.261Z,9.10
2018-12-23T00:04:47.561Z,8.95
2018-12-23T00:07:15.890Z,8.87
2018-12-23T00:09:44.226Z,8.97
2018-12-23T00:12:12.608Z,8.94
2018-12-23T00:14:41.539Z,8.85
2018-12-23T00:17:09.972Z,8.74
2018-12-23T00:19:38.374Z,8.69
2018-12-23T00:22:06.773Z,8.61
2018-12-23T00:24:35.083Z,8.63
2018-12-23T00:27:03.388Z,8.60
2018-12-23T00:29:31.730Z,8.67
2018-12-23T00:32:00.090Z,8.74
2018-12-23T00:34:28.458Z,8.79
2018-12-23T00:36:56.816Z,8.85
2018-12-23T00:39:25.133Z,8.85
2018-12-23T00:41:53.486Z,8.88
2018-12-23T00:44:22.862Z,8.85
2018-12-23T00:46:51.193Z,8.89
2018-12-23T00:49:19.575Z,8.96
2018-12-23T00:51:47.913Z,8.89
2018-12-23T00:54:16.225Z,8.94
2018-12-23T00:56:44.562Z,8.79
2018-12-23T00:59:13.303Z,8.77
2018-12-23T01:01:41.624Z,8.66
2018-12-23T01:04:09.949Z,8.76
2018-12-23T01:06:38.314Z,8.67
2018-12-23T01:09:06.708Z,8.68
2018-12-23T01:11:35.056Z,8.66
2018-12-23T01:14:03.380Z,8.76
2018-12-23T01:16:31.833Z,8.60
2018-12-23T01:19:00.237Z,8.59
2018-12-23T01:21:28.601Z,8.49
2018-12-23T01:23:56.937Z,8.53
2018-12-23T01:26:25.295Z,8.57
2018-12-23T01:28:53.643Z,8.48
2018-12-23T01:31:21.974Z,8.57
2018-12-23T01:33:50.358Z,8.58
2018-12-23T01:36:18.665Z,8.53
2018-12-23T01:38:46.991Z,8.53
2018-12-23T01:41:15.932Z,8.52
2018-12-23T01:43:44.459Z,8.46
2018-12-23T01:46:13.267Z,8.49
2018-12-23T01:48:41.662Z,8.40
2018-12-23T01:51:09.972Z,8.46
2018-12-23T01:53:38.311Z,8.53
2018-12-23T01:56:06.641Z,8.58
2018-12-23T01:58:34.963Z,8.67
2018-12-23T02:01:03.356Z,8.72
2018-12-23T02:03:31.773Z,8.70
2018-12-23T02:06:00.153Z,8.63
2018-12-23T02:08:28.501Z,8.68
2018-12-23T02:10:56.903Z,8.62
2018-12-23T02:13:25.503Z,8.64
2018-12-23T02:15:53.818Z,8.71
2018-12-23T02:18:22.145Z,8.70
2018-12-23T02:20:50.493Z,8.69
2018-12-23T02:23:18.884Z,8.80
2018-12-23T02:25:47.220Z,8.72
2018-12-23T02:28:15.577Z,8.70
2018-12-23T02:30:43.893Z,8.78
2018-12-23T02:33:12.673Z,8.73
2018-12-23T02:35:41.891Z,8.69
2018-12-23T02:38:10.303Z,8.51
2018-12-23T02:40:38.714Z,8.63
2018-12-23T02:43:07.077Z,8.64
2018-12-23T02:45:35.487Z,8.51
2018-12-23T02:48:03.810Z,8.44
2018-12-23T02:50:32.227Z,8.38
2018-12-23T02:53:00.543Z,8.35
2018-12-23T02:55:28.882Z,8.29
2018-12-23T02:57:57.197Z,8.31
2018-12-23T03:00:25.539Z,8.33
2018-12-23T03:02:53.880Z,8.25
2018-12-23T03:05:22.279Z,8.30
2018-12-23T03:07:50.587Z,8.38
2018-12-23T03:10:19.054Z,8.41
2018-12-23T03:12:47.443Z,8.40
2018-12-23T03:15:17.657Z,8.44
2018-12-23T03:17:46.067Z,8.37
2018-12-23T03:20:15.275Z,8.24
2018-12-23T03:22:43.585Z,8.27
2018-12-23T03:25:11.917Z,8.34
2018-12-23T03:27:40.261Z,8.32
2018-12-23T03:30:08.735Z,8.31
2018-12-23T03:32:37.067Z,8.33
2018-12-23T03:35:05.577Z,8.32
2018-12-23T03:37:34.527Z,8.38
2018-12-23T03:40:02.916Z,8.36
2018-12-23T03:42:31.615Z,8.40
2018-12-23T03:45:00.534Z,8.37
2018-12-23T03:47:28.916Z,8.39
2018-12-23T03:49:57.233Z,8.35
2018-12-23T03:52:25.617Z,8.28
2018-12-23T03:54:53.912Z,8.37
2018-12-23T03:57:22.258Z,8.19
2018-12-23T03:59:50.560Z,8.16
2018-12-23T04:02:18.914Z,8.14
2018-12-23T04:04:47.320Z,8.06
2018-12-23T04:07:15.809Z,8.01
2018-12-23T04:09:45.278Z,7.92
2018-12-23T04:12:14.275Z,7.93
2018-12-23T04:14:42.713Z,7.82
2018-12-23T04:17:11.049Z,7.83
2018-12-23T04:19:39.958Z,7.94
2018-12-23T04:22:08.310Z,7.94
2018-12-23T04:24:36.670Z,8.01
2018-12-23T04:27:05.116Z,8.06
2018-12-23T04:29:33.436Z,8.08
2018-12-23T04:32:01.857Z,8.11
2018-12-23T04:34:30.193Z,8.17
2018-12-23T04:36:58.539Z,8.20
2018-12-23T04:39:26.928Z,8.18
2018-12-23T04:41:55.244Z,8.21
2018-12-23T04:44:23.570Z,8.29
2018-12-23T04:46:51.901Z,8.31
2018-12-23T04:49:20.247Z,8.40
2018-12-23T04:51:48.565Z,8.37
2018-12-23T04:54:16.979Z,8.36
2018-12-23T04:56:45.322Z,8.46
2018-12-23T04:59:14.366Z,8.44
2018-12-23T05:01:42.664Z,8.39
2018-12-23T05:04:11.011Z,8.36
2018-12-23T05:06:43.380Z,8.29
2018-12-23T05:09:09.687Z,8.17
2018-12-23T05:11:38.058Z,8.10
2018-12-23T05:14:06.410Z,8.11
2018-12-23T05:16:34.735Z,8.12
2018-12-23T05:19:03.082Z,8.19
2018-12-23T05:21:31.457Z,8.09
2018-12-23T05:23:59.820Z,8.03
2018-12-23T05:26:28.220Z,8.03
2018-12-23T05:28:56.566Z,7.99
2018-12-23T05:31:24.879Z,7.95
2018-12-23T05:33:53.219Z,7.84
2018-12-23T05:36:21.570Z,7.93
2018-12-23T05:38:49.897Z,7.90
2018-12-23T05:41:18.845Z,7.88
2018-12-23T05:43:47.239Z,7.84
2018-12-23T05:46:15.697Z,7.90
2018-12-23T05:48:44.035Z,7.87
2018-12-23T05:51:12.922Z,7.92
2018-12-23T05:53:41.243Z,7.96
2018-12-23T05:56:09.590Z,7.91
2018-12-23T05:58:37.915Z,7.87
2018-12-23T06:01:06.234Z,7.85
2018-12-23T06:03:34.589Z,7.88
2018-12-23T06:06:02.970Z,7.84
2018-12-23T06:08:31.316Z,7.87
2018-12-23T06:10:59.666Z,7.86
2018-12-23T06:13:27.996Z,7.81
2018-12-23T06:15:56.642Z,7.78
2018-12-23T06:18:24.971Z,7.82
2018-12-23T06:20:53.423Z,7.83
2018-12-23T06:23:21.825Z,7.94
2018-12-23T06:25:50.152Z,7.88
2018-12-23T06:28:18.461Z,7.89
2018-12-23T06:30:46.783Z,7.88
2018-12-23T06:33:15.189Z,7.87
2018-12-23T06:35:43.514Z,7.93
2018-12-23T06:38:11.950Z,7.86
2018-12-23T06:40:40.255Z,7.86
2018-12-23T06:43:08.604Z,7.86
2018-12-23T06:45:36.945Z,7.88
2018-12-23T06:48:05.268Z,7.86
2018-12-23T06:50:33.616Z,7.86
2018-12-23T06:53:02.012Z,7.90
2018-12-23T06:55:30.428Z,7.82
2018-12-23T06:57:58.850Z,7.83
2018-12-23T07:00:27.257Z,7.78
2018-12-23T07:02:55.597Z,7.84
2018-12-23T07:05:23.918Z,7.92
2018-12-23T07:07:52.270Z,7.87
2018-12-23T07:10:20.637Z,7.87
2018-12-23T07:12:48.983Z,7.84
2018-12-23T07:15:17.297Z,7.83
2018-12-23T07:17:45.624Z,7.86
2018-12-23T07:20:13.955Z,8.04
2018-12-23T07:22:42.317Z,8.00
2018-12-23T07:25:11.394Z,8.00
2018-12-23T07:27:39.693Z,8.03
2018-12-23T07:30:08.078Z,8.08
2018-12-23T07:32:36.733Z,8.08
2018-12-23T07:35:05.304Z,8.19
2018-12-23T07:37:33.653Z,8.19
2018-12-23T07:40:02.061Z,8.17
2018-12-23T07:42:30.392Z,8.18
2018-12-23T07:44:58.746Z,8.19
2018-12-23T07:47:27.051Z,8.23
2018-12-23T07:49:55.401Z,8.37
2018-12-23T07:52:23.716Z,8.77
2018-12-23T07:54:52.057Z,9.21
2018-12-23T07:57:20.398Z,9.70
2018-12-23T07:59:48.719Z,9.89
2018-12-23T08:02:17.054Z,9.62
2018-12-23T08:04:45.407Z,9.40
2018-12-23T08:07:13.741Z,9.11
2018-12-23T08:09:42.077Z,9.05
2018-12-23T08:12:10.599Z,9.02
2018-12-23T08:14:38.952Z,9.07
2018-12-23T08:17:07.288Z,9.06
2018-12-23T08:19:35.636Z,8.99
2018-12-23T08:22:06.105Z,8.96
2018-12-23T08:24:34.727Z,8.99
2018-12-23T08:27:03.087Z,9.02
2018-12-23T08:29:31.421Z,9.03
2018-12-23T08:31:59.755Z,9.03
2018-12-23T08:34:28.091Z,9.02
2018-12-23T08:36:56.405Z,9.12
2018-12-23T08:39:24.805Z,9.25
2018-12-23T08:41:53.198Z,9.32
2018-12-23T08:44:21.476Z,9.30
2018-12-23T08:46:49.827Z,9.22
2018-12-23T08:49:18.186Z,9.20
2018-12-23T08:51:46.533Z,9.37
2018-12-23T08:54:14.921Z,9.32
2018-12-23T08:56:43.255Z,9.48
2018-12-23T08:59:11.663Z,9.53
2018-12-23T09:01:40.021Z,9.44
2018-12-23T09:04:08.675Z,9.46
2018-12-23T09:06:37.336Z,9.52
2018-12-23T09:09:06.016Z,9.41
2018-12-23T09:11:42.638Z,9.24
2018-12-23T09:14:04.689Z,9.49
2018-12-23T09:16:33.247Z,9.41
2018-12-23T09:19:01.603Z,9.41
2018-12-23T09:21:30.014Z,9.38
2018-12-23T09:23:58.367Z,9.36
2018-12-23T09:26:26.743Z,9.32
2018-12-23T09:28:55.082Z,9.33
2018-12-23T09:31:23.421Z,9.44
2018-12-23T09:33:51.751Z,9.48
2018-12-23T09:36:20.124Z,9.49
2018-12-23T09:38:48.416Z,9.65
2018-12-23T09:41:17.021Z,9.71
2018-12-23T09:43:46.804Z,9.75
2018-12-23T09:46:16.169Z,9.86
2018-12-23T09:48:45.444Z,9.73
2018-12-23T09:51:13.921Z,9.78
2018-12-23T09:53:42.232Z,10.02
2018-12-23T09:56:10.582Z,9.98
2018-12-23T09:58:38.906Z,9.98
2018-12-23T10:01:07.524Z,9.97
2018-12-23T10:03:35.876Z,9.92
2018-12-23T10:06:04.284Z,9.98
2018-12-23T10:08:32.700Z,9.99
2018-12-23T10:11:01.052Z,10.08
2018-12-23T10:13:29.378Z,10.06
2018-12-23T10:15:57.739Z,10.11
2018-12-23T10:18:26.071Z,10.05
2018-12-23T10:20:54.417Z,10.14
2018-12-23T10:23:22.772Z,10.24
2018-12-23T10:25:51.154Z,10.17
2018-12-23T10:28:19.469Z,10.28
2018-12-23T10:30:47.806Z,10.42
2018-12-23T10:33:16.256Z,10.36
2018-12-23T10:35:44.603Z,10.48
2018-12-23T10:38:18.348Z,10.32
2018-12-23T10:40:43.331Z,10.21
2018-12-23T10:43:11.663Z,10.39
2018-12-23T10:45:40.028Z,10.34
2018-12-23T10:48:08.420Z,10.41
2018-12-23T10:50:37.216Z,10.51
2018-12-23T10:53:05.619Z,10.50
2018-12-23T10:55:34.789Z,10.39
2018-12-23T10:58:03.160Z,10.37
2018-12-23T11:00:32.306Z,10.40
2018-12-23T11:03:01.221Z,10.52
2018-12-23T11:05:29.877Z,10.46
2018-12-23T11:07:58.706Z,10.59
2018-12-23T11:10:28.799Z,10.41
2018-12-23T11:12:57.881Z,10.53
2018-12-23T11:15:26.690Z,10.54
2018-12-23T11:17:55.366Z,10.77
2018-12-23T11:20:24.196Z,10.84
2018-12-23T11:22:53.088Z,10.68
2018-12-23T11:25:21.433Z,10.70
2018-12-23T11:27:49.811Z,10.68
2018-12-23T11:30:18.114Z,10.78
2018-12-23T11:32:46.530Z,10.81
2018-12-23T11:35:14.997Z,10.77
2018-12-23T11:37:43.329Z,10.72
2018-12-23T11:40:11.698Z,10.56
2018-12-23T11:42:40.014Z,10.45
2018-12-23T11:45:08.641Z,10.14
2018-12-23T11:47:36.941Z,10.20
2018-12-23T11:50:05.421Z,10.07
2018-12-23T11:52:33.764Z,10.17
2018-12-23T11:55:02.133Z,10.18
2018-12-23T11:57:30.460Z,10.12
2018-12-23T11:59:58.796Z,10.19
2018-12-23T12:02:27.137Z,10.24
2018-12-23T12:04:55.724Z,10.23
2018-12-23T12:07:24.035Z,10.27
2018-12-23T12:09:52.394Z,10.43
2018-12-23T12:12:20.731Z,10.46
2018-12-23T12:14:49.086Z,10.51
2018-12-23T12:17:17.432Z,10.65
2018-12-23T12:19:45.766Z,10.59
2018-12-23T12:22:14.623Z,10.68
2018-12-23T12:24:42.969Z,10.67
2018-12-23T12:27:11.366Z,10.60
2018-12-23T12:29:39.715Z,10.45
2018-12-23T12:32:08.375Z,10.46
2018-12-23T12:34:36.716Z,10.59
2018-12-23T12:37:05.052Z,10.62
2018-12-23T12:39:33.403Z,10.63
2018-12-23T12:42:01.743Z,10.67
2018-12-23T12:44:30.084Z,10.58
2018-12-23T12:46:58.456Z,10.56
2018-12-23T12:49:26.809Z,10.47
2018-12-23T12:51:55.179Z,10.36
2018-12-23T12:54:23.497Z,10.34
2018-12-23T12:56:51.853Z,10.28
2018-12-23T12:59:20.223Z,10.23
2018-12-23T13:01:48.573Z,10.33
2018-12-23T13:04:16.932Z,10.40
2018-12-23T13:06:45.279Z,10.42
2018-12-23T13:09:13.700Z,10.23
2018-12-23T13:11:42.086Z,10.23
2018-12-23T13:14:10.481Z,10.12
2018-12-23T13:16:38.797Z,10.30
2018-12-23T13:19:07.419Z,10.19
2018-12-23T13:21:35.737Z,10.12
2018-12-23T13:24:04.129Z,9.92
2018-12-23T13:26:32.562Z,9.95
2018-12-23T13:29:00.873Z,9.83
2018-12-23T13:31:29.215Z,9.91
2018-12-23T13:33:57.530Z,9.81
2018-12-23T13:36:25.856Z,9.68
2018-12-23T13:38:54.292Z,9.62
2018-12-23T13:41:28.139Z,9.64
2018-12-23T13:44:02.089Z,9.65
2018-12-23T13:49:45.716Z,9.66
2018-12-23T13:52:19.066Z,9.62
2018-12-23T13:54:52.820Z,9.63
2018-12-23T13:57:24.416Z,9.61
2018-12-23T14:00:01.103Z,9.63
2018-12-23T14:02:35.885Z,9.54
2018-12-23T14:05:06.914Z,9.54
2018-12-23T14:07:39.377Z,9.48
2018-12-23T14:10:16.476Z,9.30
2018-12-23T14:12:44.968Z,9.28
2018-12-23T14:15:13.585Z,9.28
2018-12-23T14:17:42.111Z,9.31
2018-12-23T14:20:10.940Z,9.24
2018-12-23T14:22:39.344Z,9.08
2018-12-23T14:25:07.667Z,9.00
2018-12-23T14:27:35.994Z,9.01
2018-12-23T14:30:09.097Z,9.04
2018-12-23T14:32:37.612Z,9.05
2018-12-23T14:35:05.935Z,9.13
2018-12-23T14:37:34.677Z,9.10
2018-12-23T14:40:03.141Z,9.12
2018-12-23T14:42:31.470Z,9.11
2018-12-23T14:45:00.264Z,9.11
2018-12-23T14:47:29.133Z,9.13
2018-12-23T14:49:57.914Z,9.13
2018-12-23T14:52:26.583Z,8.97
2018-12-23T14:54:54.913Z,8.87
2018-12-23T14:57:23.274Z,8.92
2018-12-23T14:59:51.603Z,8.86
2018-12-23T15:02:19.964Z,8.88
2018-12-23T15:04:48.293Z,8.86
2018-12-23T15:07:16.622Z,8.81
2018-12-23T15:09:44.992Z,8.81
2018-12-23T15:12:13.326Z,9.01
2018-12-23T15:14:41.663Z,8.82
2018-12-23T15:17:10.033Z,8.94
2018-12-23T15:19:38.625Z,8.92
2018-12-23T15:22:06.967Z,8.84
2018-12-23T15:24:35.302Z,8.85
2018-12-23T15:27:04.375Z,8.79
2018-12-23T15:29:32.772Z,8.75
2018-12-23T15:32:01.126Z,8.70
2018-12-23T15:34:29.485Z,8.63
2018-12-23T15:36:57.880Z,8.79
2018-12-23T15:39:26.371Z,8.66
2018-12-23T15:41:54.696Z,8.61
2018-12-23T15:44:23.023Z,8.62
2018-12-23T15:46:51.361Z,8.73
2018-12-23T15:49:19.750Z,8.68
2018-12-23T15:51:48.081Z,8.56
2018-12-23T15:54:16.448Z,8.60
2018-12-23T15:56:44.739Z,8.54
2018-12-23T15:59:13.895Z,8.49
2018-12-23T16:01:42.229Z,8.54
2018-12-23T16:04:10.604Z,8.62
2018-12-23T16:06:39.041Z,8.53
2018-12-23T16:09:07.461Z,8.60
2018-12-23T16:11:36.229Z,8.69
2018-12-23T16:14:04.716Z,8.70
2018-12-23T16:16:33.093Z,8.70
2018-12-23T16:19:01.681Z,8.75
2018-12-23T16:21:30.043Z,8.77
2018-12-23T16:23:58.364Z,8.87
2018-12-23T16:26:26.738Z,8.85
2018-12-23T16:28:55.055Z,8.62
2018-12-23T16:31:23.392Z,8.72
2018-12-23T16:33:51.720Z,8.65
2018-12-23T16:36:20.056Z,8.81
2018-12-23T16:38:48.404Z,8.87
2018-12-23T16:41:16.818Z,8.77
2018-12-23T16:43:45.229Z,8.73
2018-12-23T16:46:14.108Z,8.68
2018-12-23T16:48:42.425Z,8.67
2018-12-23T16:51:10.763Z,8.67
2018-12-23T16:53:39.118Z,8.61
2018-12-23T16:56:07.601Z,8.76
2018-12-23T16:58:36.831Z,8.74
2018-12-23T17:01:05.184Z,8.74
2018-12-23T17:03:33.552Z,8.85
2018-12-23T17:06:01.872Z,8.76
2018-12-23T17:08:30.225Z,8.72
2018-12-23T17:10:58.815Z,8.89
2018-12-23T17:13:27.146Z,8.88
2018-12-23T17:15:55.490Z,8.89
2018-12-23T17:18:23.875Z,8.74
2018-12-23T17:20:52.184Z,8.79
2018-12-23T17:23:20.523Z,8.68
2018-12-23T17:25:48.873Z,8.79
2018-12-23T17:28:17.214Z,8.96
2018-12-23T17:30:45.626Z,8.84
2018-12-23T17:33:14.501Z,8.86
2018-12-23T17:35:42.810Z,8.88
2018-12-23T17:38:11.150Z,9.00
2018-12-23T17:40:39.520Z,8.88
2018-12-23T17:43:07.879Z,8.83
2018-12-23T17:45:36.185Z,8.90
2018-12-23T17:48:04.595Z,8.90
2018-12-23T17:50:32.932Z,8.84
2018-12-23T17:53:02.290Z,8.87
2018-12-23T17:55:30.619Z,8.93
2018-12-23T17:57:58.931Z,8.98
2018-12-23T18:00:27.304Z,8.96
2018-12-23T18:02:55.631Z,9.07
2018-12-23T18:05:23.986Z,9.14
2018-12-23T18:07:52.333Z,9.17
2018-12-23T18:10:24.936Z,9.14
2018-12-23T18:12:51.119Z,9.10
2018-12-23T18:15:19.554Z,9.23
2018-12-23T18:17:47.887Z,9.31
2018-12-23T18:20:17.192Z,9.31
2018-12-23T18:22:45.508Z,9.17
2018-12-23T18:25:14.270Z,9.08
2018-12-23T18:27:42.598Z,9.04
2018-12-23T18:30:10.945Z,9.05
2018-12-23T18:32:39.605Z,9.08
2018-12-23T18:35:08.381Z,9.06
2018-12-23T18:37:36.878Z,9.05
2018-12-23T18:40:06.088Z,9.12
2018-12-23T18:42:34.683Z,9.21
2018-12-23T18:45:03.072Z,9.15
2018-12-23T18:47:31.416Z,9.13
2018-12-23T18:49:59.767Z,9.07
2018-12-23T18:52:28.074Z,9.25
2018-12-23T18:54:56.429Z,9.26
2018-12-23T18:57:24.835Z,9.16
2018-12-23T18:59:53.230Z,9.25
2018-12-23T19:02:21.820Z,9.40
2018-12-23T19:04:50.124Z,9.17
2018-12-23T19:07:18.483Z,9.19
2018-12-23T19:09:47.454Z,9.21
2018-12-23T19:15:33.051Z,9.38
2018-12-23T19:18:06.711Z,9.36
2018-12-23T19:23:50.665Z,9.38
2018-12-23T19:29:32.447Z,9.45
2018-12-23T19:32:05.240Z,9.28
2018-12-23T19:34:37.990Z,9.20
2018-12-23T19:37:12.730Z,9.30
2018-12-23T19:42:52.444Z,9.27
2018-12-23T19:45:28.138Z,9.36
2018-12-23T19:51:10.362Z,9.50
2018-12-23T19:56:55.305Z,9.48
2018-12-23T20:02:39.527Z,9.44
2018-12-23T20:08:19.761Z,9.29
2018-12-23T20:14:00.201Z,9.45
2018-12-23T20:19:46.553Z,9.59
2018-12-23T20:25:28.542Z,9.68
2018-12-23T20:28:03.334Z,9.65
2018-12-23T20:30:39.050Z,9.68
2018-12-23T20:36:21.704Z,9.74
2018-12-23T20:38:55.417Z,9.84
2018-12-23T20:41:28.929Z,9.80
2018-12-23T20:44:02.435Z,9.78
2018-12-23T20:49:47.417Z,9.89
2018-12-23T20:55:31.947Z,10.09
2018-12-23T20:58:02.829Z,10.10
2018-12-23T21:03:48.395Z,10.09
2018-12-23T21:06:22.649Z,10.13
2018-12-23T21:08:55.893Z,10.12
2018-12-23T21:11:29.578Z,10.21
2018-12-23T21:16:46.030Z,10.29
2018-12-23T21:19:19.589Z,10.29
2018-12-23T21:25:11.051Z,10.40
2018-12-23T21:27:41.284Z,10.58
2018-12-23T21:30:13.866Z,10.40
2018-12-23T21:35:56.226Z,10.49
2018-12-23T21:41:39.419Z,10.55
2018-12-23T21:47:26.012Z,10.76
2018-12-23T21:49:57.002Z,10.78
2018-12-23T21:52:30.802Z,10.77
2018-12-23T21:58:13.683Z,10.67
2018-12-23T22:00:47.451Z,10.69
2018-12-23T22:03:21.232Z,10.78
2018-12-23T22:06:05.018Z,10.78
2018-12-23T22:08:35.809Z,10.92
2018-12-23T22:11:08.402Z,11.01
2018-12-23T22:13:36.767Z,11.08
2018-12-23T22:16:05.074Z,11.05
2018-12-23T22:18:33.428Z,11.07
2018-12-23T22:21:01.777Z,11.20
2018-12-23T22:23:30.130Z,11.25
2018-12-23T22:25:58.483Z,11.21
2018-12-23T22:28:26.904Z,11.34
2018-12-23T22:30:55.249Z,11.31
2018-12-23T22:33:23.624Z,11.40
2018-12-23T22:35:51.929Z,11.53
2018-12-23T22:38:20.281Z,11.52
2018-12-23T22:40:48.665Z,11.59
2018-12-23T22:43:16.991Z,11.58
2018-12-23T22:45:45.305Z,11.66
2018-12-23T22:48:14.394Z,11.70
2018-12-23T22:50:43.315Z,11.77
2018-12-23T22:53:11.811Z,11.75
2018-12-23T22:55:40.119Z,11.77
2018-12-23T22:58:08.460Z,11.86
2018-12-23T23:00:36.805Z,11.79
2018-12-23T23:03:09.231Z,11.88
2018-12-23T23:05:35.662Z,11.97
2018-12-23T23:08:04.515Z,11.97
2018-12-23T23:13:34.829Z,11.97
2018-12-23T23:16:03.163Z,11.94
2018-12-23T23:18:31.517Z,12.08
2018-12-23T23:20:59.849Z,12.14
2018-12-23T23:23:28.264Z,12.00
2018-12-23T23:25:56.993Z,11.89
2018-12-23T23:28:25.353Z,11.90
2018-12-23T23:30:53.757Z,11.74
2018-12-23T23:33:24.144Z,11.63
2018-12-23T23:35:52.708Z,11.59
2018-12-23T23:38:21.049Z,11.57
2018-12-23T23:40:49.396Z,11.45
2018-12-23T23:43:17.844Z,10.41
2018-12-23T23:45:46.344Z,9.48
2018-12-23T23:48:15.059Z,8.87
2018-12-23T23:50:43.406Z,8.49
2018-12-23T23:53:11.714Z,8.26
2018-12-23T23:55:40.046Z,8.06
2018-12-23T23:58:08.376Z,7.98
